Terminal Aerodrome Forecast
Issued by NWS

Current Version | Previous Version | Text Only | Print | Product List | Glossary On
Versions: 1 2 3 4 5 6 7 8 9 10 11 12
000
FTUS44 KBMX 291700
TAFTCL
TAF
KTCL 291730Z 2918/3018 19011G16KT P6SM SCT035 BKN060
     FM300000 33008G15KT 6SM BR VCSH SCT015 OVC025
     FM300600 35008KT P6SM OVC050
     FM301500 36012KT P6SM SCT050 BKN250=

USA.gov is the U.S. government's official web portal to all federal, state and local government web resources and services.